Humboldt, Arizona
Current Conditions -  °F | °C
As of 12:53 AM on Thursday 18 Dec 2014 (Local Time) from KPRC Reporting Station
Broken Clouds Broken Clouds  
Wind Chill: 29°   Ceiling: 3300
Heat Index: 34°   Visibility: 10mi
Dew Point: 30°   Wind: 6mph
Humidity: 85%   Direction: 160°SSE
Pressure: 30.12"   Gusts: NA
Location:  34.5°N, 112.24°W
Report Text: KPRC 180753Z AUTO 16005KT 10SM FEW024 SCT028 BKN033 01/M01 A3012 RMK AO2 SLP183 T00111011
Loading
Personal Weather Stations






























Interactive Weather Map New forecast layout! Learn more

10-Day Weather Forecast

Advertisements
Track Severe Weather on mobile